sensor_id;sensor_type;location;lat;lon;timestamp;pressure;altitude;pressure_sealevel;temperature
17716;BMP280;50159;49.426;11.182;2023-07-08T00:00:24;97852.97;;;16.52
17716;BMP280;50159;49.426;11.182;2023-07-08T00:02:52;97862.44;;;16.45
17716;BMP280;50159;49.426;11.182;2023-07-08T00:05:21;97853.91;;;16.43
17716;BMP280;50159;49.426;11.182;2023-07-08T00:07:50;97856.81;;;16.40
17716;BMP280;50159;49.426;11.182;2023-07-08T00:10:23;97843.81;;;16.39
17716;BMP280;50159;49.426;11.182;2023-07-08T00:12:53;97853.13;;;16.34
17716;BMP280;50159;49.426;11.182;2023-07-08T00:15:32;97852.38;;;16.24
17716;BMP280;50159;49.426;11.182;2023-07-08T00:18:00;97864.31;;;16.18
17716;BMP280;50159;49.426;11.182;2023-07-08T00:20:38;97856.59;;;16.17
17716;BMP280;50159;49.426;11.182;2023-07-08T00:23:05;97854.25;;;16.14
17716;BMP280;50159;49.426;11.182;2023-07-08T00:25:32;97852.22;;;16.08
17716;BMP280;50159;49.426;11.182;2023-07-08T00:27:59;97857.34;;;16.00
17716;BMP280;50159;49.426;11.182;2023-07-08T00:30:30;97857.34;;;16.00
17716;BMP280;50159;49.426;11.182;2023-07-08T00:32:58;97866.50;;;15.96
17716;BMP280;50159;49.426;11.182;2023-07-08T00:35:45;97856.69;;;15.98
17716;BMP280;50159;49.426;11.182;2023-07-08T00:38:20;97849.47;;;16.00
17716;BMP280;50159;49.426;11.182;2023-07-08T00:41:28;97846.19;;;15.98
17716;BMP280;50159;49.426;11.182;2023-07-08T00:43:58;97840.72;;;15.92
17716;BMP280;50159;49.426;11.182;2023-07-08T00:46:38;97843.09;;;15.86
17716;BMP280;50159;49.426;11.182;2023-07-08T00:51:39;97854.19;;;15.80
17716;BMP280;50159;49.426;11.182;2023-07-08T00:54:15;97845.63;;;15.78
17716;BMP280;50159;49.426;11.182;2023-07-08T00:56:54;97853.50;;;15.78
17716;BMP280;50159;49.426;11.182;2023-07-08T00:59:50;97853.78;;;15.75
17716;BMP280;50159;49.426;11.182;2023-07-08T01:02:21;97854.38;;;15.69
17716;BMP280;50159;49.426;11.182;2023-07-08T01:07:32;97858.47;;;15.54
17716;BMP280;50159;49.426;11.182;2023-07-08T01:10:10;97857.53;;;15.46
17716;BMP280;50159;49.426;11.182;2023-07-08T01:12:49;97848.56;;;15.39
17716;BMP280;50159;49.426;11.182;2023-07-08T01:15:18;97844.75;;;15.34
17716;BMP280;50159;49.426;11.182;2023-07-08T01:17:48;97841.75;;;15.29
17716;BMP280;50159;49.426;11.182;2023-07-08T01:20:19;97832.50;;;15.25
17716;BMP280;50159;49.426;11.182;2023-07-08T01:22:46;97834.84;;;15.28
17716;BMP280;50159;49.426;11.182;2023-07-08T01:25:14;97832.22;;;15.28
17716;BMP280;50159;49.426;11.182;2023-07-08T01:27:46;97832.22;;;15.28
17716;BMP280;50159;49.426;11.182;2023-07-08T01:30:15;97839.25;;;15.27
17716;BMP280;50159;49.426;11.182;2023-07-08T01:32:51;97836.09;;;15.24
17716;BMP280;50159;49.426;11.182;2023-07-08T01:35:20;97838.34;;;15.19
17716;BMP280;50159;49.426;11.182;2023-07-08T01:37:56;97831.03;;;15.13
17716;BMP280;50159;49.426;11.182;2023-07-08T01:40:33;97837.69;;;15.08
17716;BMP280;50159;49.426;11.182;2023-07-08T01:43:02;97826.94;;;15.01
17716;BMP280;50159;49.426;11.182;2023-07-08T01:45:37;97826.81;;;14.94
17716;BMP280;50159;49.426;11.182;2023-07-08T01:48:11;97831.75;;;14.87
17716;BMP280;50159;49.426;11.182;2023-07-08T01:50:46;97830.41;;;14.83
17716;BMP280;50159;49.426;11.182;2023-07-08T01:53:21;97826.13;;;14.82
17716;BMP280;50159;49.426;11.182;2023-07-08T01:55:48;97833.31;;;14.80
17716;BMP280;50159;49.426;11.182;2023-07-08T01:58:15;97832.75;;;14.77
17716;BMP280;50159;49.426;11.182;2023-07-08T02:00:42;97831.25;;;14.75
17716;BMP280;50159;49.426;11.182;2023-07-08T02:03:10;97833.19;;;14.73
17716;BMP280;50159;49.426;11.182;2023-07-08T02:05:36;97837.59;;;14.72
17716;BMP280;50159;49.426;11.182;2023-07-08T02:08:04;97829.19;;;14.69
17716;BMP280;50159;49.426;11.182;2023-07-08T02:10:31;97835.94;;;14.71
17716;BMP280;50159;49.426;11.182;2023-07-08T02:12:57;97829.75;;;14.72
17716;BMP280;50159;49.426;11.182;2023-07-08T02:15:26;97832.34;;;14.72
17716;BMP280;50159;49.426;11.182;2023-07-08T02:17:53;97840.22;;;14.72
17716;BMP280;50159;49.426;11.182;2023-07-08T02:20:20;97833.75;;;14.67
17716;BMP280;50159;49.426;11.182;2023-07-08T02:22:47;97832.38;;;14.63
17716;BMP280;50159;49.426;11.182;2023-07-08T02:25:13;97839.69;;;14.59
17716;BMP280;50159;49.426;11.182;2023-07-08T02:27:40;97831.81;;;14.59
17716;BMP280;50159;49.426;11.182;2023-07-08T02:30:08;97832.13;;;14.56
17716;BMP280;50159;49.426;11.182;2023-07-08T02:32:36;97829.78;;;14.54
17716;BMP280;50159;49.426;11.182;2023-07-08T02:35:09;97826.59;;;14.50
17716;BMP280;50159;49.426;11.182;2023-07-08T02:37:36;97829.50;;;14.47
17716;BMP280;50159;49.426;11.182;2023-07-08T02:40:03;97833.91;;;14.47
17716;BMP280;50159;49.426;11.182;2023-07-08T02:42:30;97828.97;;;14.44
17716;BMP280;50159;49.426;11.182;2023-07-08T02:44:57;97828.00;;;14.45
17716;BMP280;50159;49.426;11.182;2023-07-08T02:47:26;97829.94;;;14.43
17716;BMP280;50159;49.426;11.182;2023-07-08T02:49:53;97827.47;;;14.41
17716;BMP280;50159;49.426;11.182;2023-07-08T02:52:21;97820.00;;;14.37
17716;BMP280;50159;49.426;11.182;2023-07-08T02:54:47;97834.34;;;14.33
17716;BMP280;50159;49.426;11.182;2023-07-08T02:57:14;97833.81;;;14.30
17716;BMP280;50159;49.426;11.182;2023-07-08T02:59:41;97838.47;;;14.26
17716;BMP280;50159;49.426;11.182;2023-07-08T03:02:08;97831.72;;;14.24
17716;BMP280;50159;49.426;11.182;2023-07-08T03:04:35;97836.41;;;14.20
17716;BMP280;50159;49.426;11.182;2023-07-08T03:07:07;97838.63;;;14.15
17716;BMP280;50159;49.426;11.182;2023-07-08T03:09:39;97847.53;;;14.13
17716;BMP280;50159;49.426;11.182;2023-07-08T03:12:11;97845.34;;;14.09
17716;BMP280;50159;49.426;11.182;2023-07-08T03:14:38;97848.94;;;14.08
17716;BMP280;50159;49.426;11.182;2023-07-08T03:17:05;97847.56;;;14.04
17716;BMP280;50159;49.426;11.182;2023-07-08T03:19:32;97847.81;;;14.01
17716;BMP280;50159;49.426;11.182;2023-07-08T03:21:59;97856.75;;;13.98
17716;BMP280;50159;49.426;11.182;2023-07-08T03:24:29;97860.47;;;13.96
17716;BMP280;50159;49.426;11.182;2023-07-08T03:26:56;97862.41;;;13.94
17716;BMP280;50159;49.426;11.182;2023-07-08T03:29:25;97867.78;;;13.92
17716;BMP280;50159;49.426;11.182;2023-07-08T03:31:52;97873.81;;;13.93
17716;BMP280;50159;49.426;11.182;2023-07-08T03:34:19;97870.38;;;13.92
17716;BMP280;50159;49.426;11.182;2023-07-08T03:36:49;97872.41;;;13.89
17716;BMP280;50159;49.426;11.182;2023-07-08T03:39:20;97883.00;;;13.88
17716;BMP280;50159;49.426;11.182;2023-07-08T03:41:48;97876.38;;;13.84
17716;BMP280;50159;49.426;11.182;2023-07-08T03:44:16;97886.84;;;13.84
17716;BMP280;50159;49.426;11.182;2023-07-08T03:46:45;97882.44;;;13.84
17716;BMP280;50159;49.426;11.182;2023-07-08T03:49:12;97886.00;;;13.83
17716;BMP280;50159;49.426;11.182;2023-07-08T03:51:41;97885.75;;;13.86
17716;BMP280;50159;49.426;11.182;2023-07-08T03:54:13;97894.53;;;13.85
17716;BMP280;50159;49.426;11.182;2023-07-08T03:56:41;97894.28;;;13.88
17716;BMP280;50159;49.426;11.182;2023-07-08T03:59:08;97902.88;;;13.90
17716;BMP280;50159;49.426;11.182;2023-07-08T04:01:36;97899.00;;;13.94
17716;BMP280;50159;49.426;11.182;2023-07-08T04:04:12;97897.91;;;13.96
17716;BMP280;50159;49.426;11.182;2023-07-08T04:06:39;97897.50;;;14.01
17716;BMP280;50159;49.426;11.182;2023-07-08T04:09:06;97883.47;;;14.02
17716;BMP280;50159;49.426;11.182;2023-07-08T04:11:33;97889.41;;;14.04
17716;BMP280;50159;49.426;11.182;2023-07-08T04:14:00;97890.91;;;14.06
17716;BMP280;50159;49.426;11.182;2023-07-08T04:16:44;97888.03;;;14.09
17716;BMP280;50159;49.426;11.182;2023-07-08T04:19:14;97879.06;;;14.11
17716;BMP280;50159;49.426;11.182;2023-07-08T04:21:43;97879.50;;;14.16
17716;BMP280;50159;49.426;11.182;2023-07-08T04:24:13;97885.97;;;14.22
17716;BMP280;50159;49.426;11.182;2023-07-08T04:26:41;97884.47;;;14.29
17716;BMP280;50159;49.426;11.182;2023-07-08T04:29:18;97890.94;;;14.34
17716;BMP280;50159;49.426;11.182;2023-07-08T04:31:46;97879.09;;;14.39
17716;BMP280;50159;49.426;11.182;2023-07-08T04:34:15;97877.03;;;14.43
17716;BMP280;50159;49.426;11.182;2023-07-08T04:36:43;97885.28;;;14.48
17716;BMP280;50159;49.426;11.182;2023-07-08T04:39:10;97884.75;;;14.54
17716;BMP280;50159;49.426;11.182;2023-07-08T04:41:38;97888.31;;;14.62
17716;BMP280;50159;49.426;11.182;2023-07-08T04:44:12;97883.75;;;14.73
17716;BMP280;50159;49.426;11.182;2023-07-08T04:46:47;97883.59;;;14.84
17716;BMP280;50159;49.426;11.182;2023-07-08T04:49:17;97886.06;;;14.95
17716;BMP280;50159;49.426;11.182;2023-07-08T04:51:44;97884.97;;;15.06
17716;BMP280;50159;49.426;11.182;2023-07-08T04:54:11;97874.19;;;15.19
17716;BMP280;50159;49.426;11.182;2023-07-08T04:56:47;97888.78;;;15.30
17716;BMP280;50159;49.426;11.182;2023-07-08T04:59:18;97882.25;;;15.44
17716;BMP280;50159;49.426;11.182;2023-07-08T05:01:45;97884.38;;;15.57
17716;BMP280;50159;49.426;11.182;2023-07-08T05:04:18;97891.09;;;15.69
17716;BMP280;50159;49.426;11.182;2023-07-08T05:06:45;97902.06;;;15.82
17716;BMP280;50159;49.426;11.182;2023-07-08T05:09:13;97895.66;;;15.93
17716;BMP280;50159;49.426;11.182;2023-07-08T05:11:43;97898.63;;;16.08
17716;BMP280;50159;49.426;11.182;2023-07-08T05:14:12;97899.25;;;16.19
17716;BMP280;50159;49.426;11.182;2023-07-08T05:16:40;97897.09;;;16.32
17716;BMP280;50159;49.426;11.182;2023-07-08T05:19:07;97901.16;;;16.43
17716;BMP280;50159;49.426;11.182;2023-07-08T05:21:34;97901.59;;;16.56
17716;BMP280;50159;49.426;11.182;2023-07-08T05:24:03;97914.34;;;16.68
17716;BMP280;50159;49.426;11.182;2023-07-08T05:26:31;97899.84;;;16.81
17716;BMP280;50159;49.426;11.182;2023-07-08T05:28:58;97905.69;;;16.93
17716;BMP280;50159;49.426;11.182;2023-07-08T05:31:26;97904.66;;;17.03
17716;BMP280;50159;49.426;11.182;2023-07-08T05:34:14;97894.56;;;17.16
17716;BMP280;50159;49.426;11.182;2023-07-08T05:36:41;97916.03;;;17.28
17716;BMP280;50159;49.426;11.182;2023-07-08T05:39:08;97908.66;;;17.40
17716;BMP280;50159;49.426;11.182;2023-07-08T05:41:35;97903.69;;;17.54
17716;BMP280;50159;49.426;11.182;2023-07-08T05:44:02;97905.72;;;17.68
17716;BMP280;50159;49.426;11.182;2023-07-08T05:46:29;97914.66;;;17.82
17716;BMP280;50159;49.426;11.182;2023-07-08T05:48:56;97914.94;;;17.96
17716;BMP280;50159;49.426;11.182;2023-07-08T05:51:27;97917.44;;;18.14
17716;BMP280;50159;49.426;11.182;2023-07-08T05:53:54;97922.63;;;18.31
17716;BMP280;50159;49.426;11.182;2023-07-08T05:56:21;97919.19;;;18.46
17716;BMP280;50159;49.426;11.182;2023-07-08T05:58:47;97921.50;;;18.64
17716;BMP280;50159;49.426;11.182;2023-07-08T06:01:14;97908.06;;;18.83
17716;BMP280;50159;49.426;11.182;2023-07-08T06:03:41;97916.63;;;19.01
17716;BMP280;50159;49.426;11.182;2023-07-08T06:06:08;97917.59;;;19.15
17716;BMP280;50159;49.426;11.182;2023-07-08T06:08:35;97916.78;;;19.30
17716;BMP280;50159;49.426;11.182;2023-07-08T06:11:02;97915.94;;;19.46
17716;BMP280;50159;49.426;11.182;2023-07-08T06:13:30;97924.81;;;19.60
17716;BMP280;50159;49.426;11.182;2023-07-08T06:15:57;97921.16;;;19.77
17716;BMP280;50159;49.426;11.182;2023-07-08T06:18:24;97921.59;;;19.96
17716;BMP280;50159;49.426;11.182;2023-07-08T06:20:56;97917.72;;;20.14
17716;BMP280;50159;49.426;11.182;2023-07-08T06:23:25;97907.19;;;20.36
17716;BMP280;50159;49.426;11.182;2023-07-08T06:25:52;97913.38;;;20.59
17716;BMP280;50159;49.426;11.182;2023-07-08T06:28:19;97898.19;;;20.83
17716;BMP280;50159;49.426;11.182;2023-07-08T06:30:47;97901.91;;;21.10
17716;BMP280;50159;49.426;11.182;2023-07-08T06:33:15;97897.44;;;21.33
17716;BMP280;50159;49.426;11.182;2023-07-08T06:35:42;97903.13;;;21.58
17716;BMP280;50159;49.426;11.182;2023-07-08T06:38:10;97906.78;;;21.85
17716;BMP280;50159;49.426;11.182;2023-07-08T06:40:37;97914.75;;;22.14
17716;BMP280;50159;49.426;11.182;2023-07-08T06:43:04;97919.34;;;22.40
17716;BMP280;50159;49.426;11.182;2023-07-08T06:45:30;97912.47;;;22.60
17716;BMP280;50159;49.426;11.182;2023-07-08T06:47:57;97910.44;;;22.76
17716;BMP280;50159;49.426;11.182;2023-07-08T06:50:24;97898.56;;;22.92
17716;BMP280;50159;49.426;11.182;2023-07-08T06:52:51;97901.78;;;23.09
17716;BMP280;50159;49.426;11.182;2023-07-08T06:55:18;97898.66;;;23.26
17716;BMP280;50159;49.426;11.182;2023-07-08T06:57:45;97893.09;;;23.41
17716;BMP280;50159;49.426;11.182;2023-07-08T07:00:12;97896.84;;;23.53
17716;BMP280;50159;49.426;11.182;2023-07-08T07:02:39;97895.31;;;23.65
17716;BMP280;50159;49.426;11.182;2023-07-08T07:05:07;97900.91;;;23.76
17716;BMP280;50159;49.426;11.182;2023-07-08T07:07:34;97891.78;;;23.91
17716;BMP280;50159;49.426;11.182;2023-07-08T07:10:02;97894.19;;;24.07
17716;BMP280;50159;49.426;11.182;2023-07-08T07:12:30;97888.72;;;24.21
17716;BMP280;50159;49.426;11.182;2023-07-08T07:14:57;97884.69;;;24.38
17716;BMP280;50159;49.426;11.182;2023-07-08T07:17:24;97891.06;;;24.49
17716;BMP280;50159;49.426;11.182;2023-07-08T07:19:53;97884.97;;;24.62
17716;BMP280;50159;49.426;11.182;2023-07-08T07:22:21;97876.25;;;24.74
17716;BMP280;50159;49.426;11.182;2023-07-08T07:24:48;97880.56;;;24.88
17716;BMP280;50159;49.426;11.182;2023-07-08T07:27:15;97870.75;;;25.01
17716;BMP280;50159;49.426;11.182;2023-07-08T07:29:50;97879.78;;;25.13
17716;BMP280;50159;49.426;11.182;2023-07-08T07:32:22;97873.63;;;25.25
17716;BMP280;50159;49.426;11.182;2023-07-08T07:34:50;97876.75;;;25.35
17716;BMP280;50159;49.426;11.182;2023-07-08T07:37:20;97881.25;;;25.47
17716;BMP280;50159;49.426;11.182;2023-07-08T07:39:47;97880.41;;;25.53
17716;BMP280;50159;49.426;11.182;2023-07-08T07:42:18;97876.72;;;25.60
17716;BMP280;50159;49.426;11.182;2023-07-08T07:44:45;97884.09;;;25.71
17716;BMP280;50159;49.426;11.182;2023-07-08T07:47:13;97877.91;;;25.77
17716;BMP280;50159;49.426;11.182;2023-07-08T07:49:40;97874.19;;;25.90
17716;BMP280;50159;49.426;11.182;2023-07-08T07:52:07;97885.50;;;26.05
17716;BMP280;50159;49.426;11.182;2023-07-08T07:54:38;97882.56;;;26.19
17716;BMP280;50159;49.426;11.182;2023-07-08T07:57:05;97889.06;;;26.36
17716;BMP280;50159;49.426;11.182;2023-07-08T07:59:32;97886.56;;;26.41
17716;BMP280;50159;49.426;11.182;2023-07-08T08:01:59;97889.22;;;26.47
17716;BMP280;50159;49.426;11.182;2023-07-08T08:04:26;97888.75;;;26.56
17716;BMP280;50159;49.426;11.182;2023-07-08T08:06:53;97877.84;;;26.64
17716;BMP280;50159;49.426;11.182;2023-07-08T08:09:19;97879.19;;;26.79
17716;BMP280;50159;49.426;11.182;2023-07-08T08:11:46;97877.31;;;26.86
17716;BMP280;50159;49.426;11.182;2023-07-08T08:14:13;97881.16;;;26.97
17716;BMP280;50159;49.426;11.182;2023-07-08T08:16:40;97876.31;;;27.11
17716;BMP280;50159;49.426;11.182;2023-07-08T08:19:07;97882.47;;;27.18
17716;BMP280;50159;49.426;11.182;2023-07-08T08:21:35;97883.09;;;27.20
17716;BMP280;50159;49.426;11.182;2023-07-08T08:24:02;97886.50;;;27.27
17716;BMP280;50159;49.426;11.182;2023-07-08T08:26:29;97889.50;;;27.37
17716;BMP280;50159;49.426;11.182;2023-07-08T08:28:57;97885.31;;;27.47
17716;BMP280;50159;49.426;11.182;2023-07-08T08:31:23;97876.41;;;27.53
17716;BMP280;50159;49.426;11.182;2023-07-08T08:33:53;97883.91;;;27.68
17716;BMP280;50159;49.426;11.182;2023-07-08T08:36:20;97880.94;;;27.76
17716;BMP280;50159;49.426;11.182;2023-07-08T08:38:48;97890.88;;;27.93
17716;BMP280;50159;49.426;11.182;2023-07-08T08:41:32;97880.22;;;28.05
17716;BMP280;50159;49.426;11.182;2023-07-08T08:44:02;97891.81;;;28.16
17716;BMP280;50159;49.426;11.182;2023-07-08T08:49:21;97883.38;;;28.37
17716;BMP280;50159;49.426;11.182;2023-07-08T08:51:51;97888.38;;;28.34
17716;BMP280;50159;49.426;11.182;2023-07-08T08:54:19;97891.94;;;28.45
17716;BMP280;50159;49.426;11.182;2023-07-08T08:56:58;97895.94;;;28.54
17716;BMP280;50159;49.426;11.182;2023-07-08T09:00:02;97890.19;;;28.68
17716;BMP280;50159;49.426;11.182;2023-07-08T09:02:41;97892.31;;;28.78
17716;BMP280;50159;49.426;11.182;2023-07-08T09:05:11;97890.31;;;28.91
17716;BMP280;50159;49.426;11.182;2023-07-08T09:08:01;97888.13;;;28.99
17716;BMP280;50159;49.426;11.182;2023-07-08T09:11:00;97877.44;;;29.10
17716;BMP280;50159;49.426;11.182;2023-07-08T09:13:33;97886.22;;;29.28
17716;BMP280;50159;49.426;11.182;2023-07-08T09:16:42;97879.72;;;29.36
17716;BMP280;50159;49.426;11.182;2023-07-08T09:19:22;97872.16;;;29.44
17716;BMP280;50159;49.426;11.182;2023-07-08T09:22:48;97875.56;;;29.51
17716;BMP280;50159;49.426;11.182;2023-07-08T09:25:32;97876.53;;;29.56
17716;BMP280;50159;49.426;11.182;2023-07-08T09:27:59;97876.41;;;29.63
17716;BMP280;50159;49.426;11.182;2023-07-08T09:30:26;97878.97;;;29.69
17716;BMP280;50159;49.426;11.182;2023-07-08T09:32:56;97883.63;;;29.73
17716;BMP280;50159;49.426;11.182;2023-07-08T09:35:29;97879.31;;;29.84
17716;BMP280;50159;49.426;11.182;2023-07-08T09:38:22;97883.75;;;29.90
17716;BMP280;50159;49.426;11.182;2023-07-08T09:40:53;97895.06;;;30.03
17716;BMP280;50159;49.426;11.182;2023-07-08T09:43:38;97884.22;;;29.98
17716;BMP280;50159;49.426;11.182;2023-07-08T09:46:12;97886.34;;;30.07
17716;BMP280;50159;49.426;11.182;2023-07-08T09:48:39;97886.78;;;30.15
17716;BMP280;50159;49.426;11.182;2023-07-08T09:51:05;97874.06;;;30.22
17716;BMP280;50159;49.426;11.182;2023-07-08T09:53:36;97887.09;;;30.30
17716;BMP280;50159;49.426;11.182;2023-07-08T09:56:05;97884.50;;;30.46
17716;BMP280;50159;49.426;11.182;2023-07-08T09:58:40;97886.97;;;30.59
17716;BMP280;50159;49.426;11.182;2023-07-08T10:01:17;97888.78;;;30.70
17716;BMP280;50159;49.426;11.182;2023-07-08T10:03:47;97874.03;;;30.83
17716;BMP280;50159;49.426;11.182;2023-07-08T10:06:25;97881.22;;;30.94
17716;BMP280;50159;49.426;11.182;2023-07-08T10:09:00;97873.56;;;31.03
17716;BMP280;50159;49.426;11.182;2023-07-08T10:11:33;97889.59;;;31.09
17716;BMP280;50159;49.426;11.182;2023-07-08T10:14:09;97883.34;;;31.20
17716;BMP280;50159;49.426;11.182;2023-07-08T10:16:41;97883.59;;;31.34
17716;BMP280;50159;49.426;11.182;2023-07-08T10:19:15;97880.59;;;31.47
17716;BMP280;50159;49.426;11.182;2023-07-08T10:22:13;97888.13;;;31.61
17716;BMP280;50159;49.426;11.182;2023-07-08T10:25:16;97891.13;;;31.81
17716;BMP280;50159;49.426;11.182;2023-07-08T10:39:20;97877.81;;;31.91
17716;BMP280;50159;49.426;11.182;2023-07-08T10:48:01;97871.19;;;32.14
17716;BMP280;50159;49.426;11.182;2023-07-08T10:50:53;97872.41;;;32.44
17716;BMP280;50159;49.426;11.182;2023-07-08T10:57:54;97868.75;;;32.13
17716;BMP280;50159;49.426;11.182;2023-07-08T11:00:23;97859.22;;;31.89
17716;BMP280;50159;49.426;11.182;2023-07-08T11:03:11;97859.41;;;31.67
17716;BMP280;50159;49.426;11.182;2023-07-08T11:05:51;97858.06;;;31.53
17716;BMP280;50159;49.426;11.182;2023-07-08T11:08:23;97854.53;;;31.64
17716;BMP280;50159;49.426;11.182;2023-07-08T11:10:59;97853.34;;;31.92
17716;BMP280;50159;49.426;11.182;2023-07-08T11:13:37;97854.41;;;32.07
17716;BMP280;50159;49.426;11.182;2023-07-08T11:19:11;97855.16;;;31.87
17716;BMP280;50159;49.426;11.182;2023-07-08T11:21:48;97854.13;;;31.72
17716;BMP280;50159;49.426;11.182;2023-07-08T11:24:56;97847.41;;;32.06
17716;BMP280;50159;49.426;11.182;2023-07-08T11:27:37;97846.84;;;32.46
17716;BMP280;50159;49.426;11.182;2023-07-08T11:30:20;97840.63;;;32.88
17716;BMP280;50159;49.426;11.182;2023-07-08T11:32:54;97847.19;;;33.23
17716;BMP280;50159;49.426;11.182;2023-07-08T11:35:46;97844.28;;;33.29
17716;BMP280;50159;49.426;11.182;2023-07-08T11:38:19;97840.47;;;33.25
17716;BMP280;50159;49.426;11.182;2023-07-08T11:41:27;97842.91;;;33.01
17716;BMP280;50159;49.426;11.182;2023-07-08T11:43:59;97845.31;;;32.97
17716;BMP280;50159;49.426;11.182;2023-07-08T11:46:34;97841.66;;;32.61
17716;BMP280;50159;49.426;11.182;2023-07-08T11:49:13;97830.47;;;32.53
17716;BMP280;50159;49.426;11.182;2023-07-08T11:51:46;97843.22;;;32.36
17716;BMP280;50159;49.426;11.182;2023-07-08T11:54:30;97835.94;;;32.16
17716;BMP280;50159;49.426;11.182;2023-07-08T11:57:06;97833.56;;;31.82
17716;BMP280;50159;49.426;11.182;2023-07-08T11:59:38;97835.28;;;31.55
17716;BMP280;50159;49.426;11.182;2023-07-08T12:02:20;97831.94;;;31.32
17716;BMP280;50159;49.426;11.182;2023-07-08T12:05:35;97830.47;;;31.09
17716;BMP280;50159;49.426;11.182;2023-07-08T12:08:12;97828.25;;;31.06
17716;BMP280;50159;49.426;11.182;2023-07-08T12:10:48;97829.66;;;31.08
17716;BMP280;50159;49.426;11.182;2023-07-08T12:13:22;97825.66;;;31.11
17716;BMP280;50159;49.426;11.182;2023-07-08T12:15:49;97824.59;;;31.12
17716;BMP280;50159;49.426;11.182;2023-07-08T12:18:25;97823.84;;;31.16
17716;BMP280;50159;49.426;11.182;2023-07-08T12:20:58;97822.81;;;31.33
17716;BMP280;50159;49.426;11.182;2023-07-08T12:23:28;97823.88;;;31.65
17716;BMP280;50159;49.426;11.182;2023-07-08T12:25:57;97819.22;;;32.14
17716;BMP280;50159;49.426;11.182;2023-07-08T12:28:25;97816.97;;;32.69
17716;BMP280;50159;49.426;11.182;2023-07-08T12:30:52;97818.28;;;32.92
17716;BMP280;50159;49.426;11.182;2023-07-08T12:33:34;97823.28;;;33.31
17716;BMP280;50159;49.426;11.182;2023-07-08T12:36:03;97813.41;;;33.46
17716;BMP280;50159;49.426;11.182;2023-07-08T12:38:35;97817.63;;;33.68
17716;BMP280;50159;49.426;11.182;2023-07-08T12:43:41;97824.06;;;33.57
17716;BMP280;50159;49.426;11.182;2023-07-08T12:46:12;97820.56;;;33.57
17716;BMP280;50159;49.426;11.182;2023-07-08T12:48:40;97830.56;;;33.61
17716;BMP280;50159;49.426;11.182;2023-07-08T12:51:15;97825.25;;;33.71
17716;BMP280;50159;49.426;11.182;2023-07-08T12:53:43;97821.66;;;33.66
17716;BMP280;50159;49.426;11.182;2023-07-08T12:56:11;97819.78;;;33.66
17716;BMP280;50159;49.426;11.182;2023-07-08T12:58:45;97822.56;;;33.76
17716;BMP280;50159;49.426;11.182;2023-07-08T13:01:19;97821.06;;;33.95
17716;BMP280;50159;49.426;11.182;2023-07-08T13:03:52;97823.13;;;34.19
17716;BMP280;50159;49.426;11.182;2023-07-08T13:06:29;97822.72;;;34.46
17716;BMP280;50159;49.426;11.182;2023-07-08T13:09:07;97827.91;;;34.67
17716;BMP280;50159;49.426;11.182;2023-07-08T13:11:36;97820.16;;;34.90
17716;BMP280;50159;49.426;11.182;2023-07-08T13:14:06;97813.19;;;35.14
17716;BMP280;50159;49.426;11.182;2023-07-08T13:16:35;97818.84;;;35.17
17716;BMP280;50159;49.426;11.182;2023-07-08T13:19:03;97815.78;;;34.79
17716;BMP280;50159;49.426;11.182;2023-07-08T13:21:32;97818.56;;;34.29
17716;BMP280;50159;49.426;11.182;2023-07-08T13:23:59;97811.94;;;34.01
17716;BMP280;50159;49.426;11.182;2023-07-08T13:26:30;97809.31;;;34.10
17716;BMP280;50159;49.426;11.182;2023-07-08T13:29:04;97816.72;;;34.39
17716;BMP280;50159;49.426;11.182;2023-07-08T13:31:34;97817.56;;;34.45
17716;BMP280;50159;49.426;11.182;2023-07-08T13:34:13;97815.09;;;34.33
17716;BMP280;50159;49.426;11.182;2023-07-08T13:36:45;97815.59;;;34.25
17716;BMP280;50159;49.426;11.182;2023-07-08T13:39:29;97812.28;;;34.79
17716;BMP280;50159;49.426;11.182;2023-07-08T13:41:58;97817.81;;;35.33
17716;BMP280;50159;49.426;11.182;2023-07-08T13:44:26;97817.84;;;35.57
17716;BMP280;50159;49.426;11.182;2023-07-08T13:46:59;97815.06;;;35.18
17716;BMP280;50159;49.426;11.182;2023-07-08T13:49:44;97807.13;;;34.77
17716;BMP280;50159;49.426;11.182;2023-07-08T13:54:59;97808.41;;;34.50
17716;BMP280;50159;49.426;11.182;2023-07-08T13:57:38;97794.97;;;34.80
17716;BMP280;50159;49.426;11.182;2023-07-08T14:00:06;97814.09;;;34.49
17716;BMP280;50159;49.426;11.182;2023-07-08T14:02:34;97805.31;;;34.23
17716;BMP280;50159;49.426;11.182;2023-07-08T14:05:02;97799.50;;;34.00
17716;BMP280;50159;49.426;11.182;2023-07-08T14:07:33;97805.28;;;33.72
17716;BMP280;50159;49.426;11.182;2023-07-08T14:10:00;97798.81;;;33.42
17716;BMP280;50159;49.426;11.182;2023-07-08T14:12:26;97801.63;;;33.21
17716;BMP280;50159;49.426;11.182;2023-07-08T14:14:53;97790.84;;;33.21
17716;BMP280;50159;49.426;11.182;2023-07-08T14:17:26;97794.94;;;33.59
17716;BMP280;50159;49.426;11.182;2023-07-08T14:19:53;97794.47;;;33.72
17716;BMP280;50159;49.426;11.182;2023-07-08T14:22:27;97796.56;;;33.60
17716;BMP280;50159;49.426;11.182;2023-07-08T14:24:55;97793.91;;;33.34
17716;BMP280;50159;49.426;11.182;2023-07-08T14:27:22;97789.88;;;33.37
17716;BMP280;50159;49.426;11.182;2023-07-08T14:29:51;97783.47;;;33.83
17716;BMP280;50159;49.426;11.182;2023-07-08T14:32:22;97793.47;;;33.88
17716;BMP280;50159;49.426;11.182;2023-07-08T14:34:55;97788.50;;;34.76
17716;BMP280;50159;49.426;11.182;2023-07-08T14:37:22;97792.41;;;37.72
17716;BMP280;50159;49.426;11.182;2023-07-08T14:39:50;97795.56;;;40.51
17716;BMP280;50159;49.426;11.182;2023-07-08T14:42:19;97793.44;;;42.55
17716;BMP280;50159;49.426;11.182;2023-07-08T14:44:49;97798.16;;;44.04
17716;BMP280;50159;49.426;11.182;2023-07-08T14:47:19;97798.28;;;45.38
17716;BMP280;50159;49.426;11.182;2023-07-08T14:49:46;97800.91;;;46.41
17716;BMP280;50159;49.426;11.182;2023-07-08T14:52:13;97792.81;;;47.30
17716;BMP280;50159;49.426;11.182;2023-07-08T14:54:41;61792.09;;;-132.92
17716;BMP280;50159;49.426;11.182;2023-07-08T14:57:14;61792.09;;;-132.92
17716;BMP280;50159;49.426;11.182;2023-07-08T14:59:42;61792.09;;;-132.92